Time;durP1;ratioP1;P1;durP2;ratioP2;P2;SDS_P1;SDS_P2;PMS_P1;PMS_P2;Temp;Humidity;BMP_temperature;BMP_pressure;BME280_temperature;BME280_humidity;BME280_pressure;Samples;Min_cycle;Max_cycle;Signal;HPM_P1;HPM_P2
2023/05/16 00:01:48;;;;;;;;;;;20.80;75.50;;;;;;5076972;28;20214;-80
2023/05/16 00:04:14;;;;;;;;;;;20.70;75.40;;;;;;5059961;28;19908;-81
2023/05/16 00:06:39;;;;;;;;;;;20.70;75.40;;;;;;5059755;28;19908;-80
2023/05/16 00:09:05;;;;;;;;;;;20.70;75.50;;;;;;5063002;28;20011;-81
2023/05/16 00:11:34;;;;;;;;;;;20.70;75.50;;;;;;5058287;28;19915;-80
2023/05/16 00:14:00;;;;;;;;;;;20.70;75.60;;;;;;5075493;28;20297;-81
2023/05/16 00:16:28;;;;;;;;;;;20.70;75.60;;;;;;5073829;28;20334;-80
2023/05/16 00:18:56;;;;;;;;;;;20.60;75.60;;;;;;5063193;28;19923;-81
2023/05/16 00:21:27;;;;;;;;;;;20.60;75.60;;;;;;5061438;28;19957;-81
2023/05/16 00:23:53;;;;;;;;;;;20.70;75.70;;;;;;5062913;28;19995;-81
2023/05/16 00:26:18;;;;;;;;;;;20.60;75.70;;;;;;5080626;28;20001;-81
2023/05/16 00:28:44;;;;;;;;;;;20.60;75.70;;;;;;5062890;28;19913;-81
2023/05/16 00:31:11;;;;;;;;;;;20.60;75.80;;;;;;5080872;28;19920;-81
2023/05/16 00:33:36;;;;;;;;;;;20.60;75.80;;;;;;5063149;28;19913;-81
2023/05/16 00:36:02;;;;;;;;;;;20.60;75.90;;;;;;5080144;28;19920;-80
2023/05/16 00:38:28;;;;;;;;;;;20.60;75.90;;;;;;5060600;28;19917;-80
2023/05/16 00:40:53;;;;;;;;;;;20.60;75.90;;;;;;5063623;28;20287;-81
2023/05/16 00:43:19;;;;;;;;;;;20.50;75.90;;;;;;5057238;28;19962;-80
2023/05/16 00:45:44;;;;;;;;;;;20.50;75.80;;;;;;5071371;28;19917;-81
2023/05/16 00:48:11;;;;;;;;;;;20.50;75.80;;;;;;5056704;28;19909;-80
2023/05/16 00:50:39;;;;;;;;;;;20.50;75.80;;;;;;5052005;28;19924;-80
2023/05/16 00:53:05;;;;;;;;;;;20.50;75.80;;;;;;5059814;28;20026;-81
2023/05/16 00:55:31;;;;;;;;;;;20.40;75.80;;;;;;5049708;28;19921;-81
2023/05/16 00:57:58;;;;;;;;;;;20.40;75.90;;;;;;5059149;28;20202;-81
2023/05/16 01:00:24;;;;;;;;;;;20.40;75.90;;;;;;5057960;28;19920;-80
2023/05/16 01:02:52;;;;;;;;;;;20.40;76.00;;;;;;5066565;28;19913;-81
2023/05/16 01:05:18;;;;;;;;;;;20.40;76.00;;;;;;5060246;28;19912;-81
2023/05/16 01:07:44;;;;;;;;;;;20.40;76.00;;;;;;5076590;28;19909;-81
2023/05/16 01:10:11;;;;;;;;;;;20.40;76.00;;;;;;5068698;28;20011;-81
2023/05/16 01:12:55;;;;;;;;;;;20.40;76.00;;;;;;5040129;28;19920;-81
2023/05/16 01:15:24;;;;;;;;;;;20.40;76.00;;;;;;5053003;28;19924;-81
2023/05/16 01:18:08;;;;;;;;;;;20.30;75.90;;;;;;5059168;28;19912;-81
2023/05/16 01:20:48;;;;;;;;;;;20.30;75.90;;;;;;5059070;28;20287;-80
2023/05/16 01:23:18;;;;;;;;;;;20.30;75.90;;;;;;5059860;28;20536;-80
2023/05/16 01:25:46;;;;;;;;;;;20.30;75.90;;;;;;5058951;28;19916;-80
2023/05/16 01:28:14;;;;;;;;;;;20.30;75.90;;;;;;5063771;28;19912;-80
2023/05/16 01:30:41;;;;;;;;;;;20.30;76.60;;;;;;5070519;28;19998;-80
2023/05/16 01:33:07;;;;;;;;;;;20.30;76.00;;;;;;5066047;28;19948;-80
2023/05/16 01:35:33;;;;;;;;;;;20.30;76.10;;;;;;5074471;28;19928;-81
2023/05/16 01:38:05;;;;;;;;;;;20.30;76.10;;;;;;5067078;28;20422;-80
2023/05/16 01:40:37;;;;;;;;;;;20.30;76.10;;;;;;5061327;28;19913;-80
2023/05/16 01:43:06;;;;;;;;;;;20.30;76.10;;;;;;5062562;28;20282;-81
2023/05/16 01:45:33;;;;;;;;;;;20.20;76.00;;;;;;5062364;28;19927;-80
2023/05/16 01:48:10;;;;;;;;;;;20.20;76.10;;;;;;5062566;28;20290;-80
2023/05/16 01:50:41;;;;;;;;;;;20.20;76.10;;;;;;5062047;28;19912;-80
2023/05/16 01:53:08;;;;;;;;;;;20.20;76.10;;;;;;5042895;28;19919;-80
2023/05/16 01:55:44;;;;;;;;;;;20.20;76.20;;;;;;5053045;28;19924;-80
2023/05/16 01:58:11;;;;;;;;;;;20.20;76.20;;;;;;5062339;28;20239;-81
2023/05/16 02:00:53;;;;;;;;;;;20.20;76.20;;;;;;5061735;28;19913;-80
2023/05/16 02:03:19;;;;;;;;;;;20.20;76.30;;;;;;5062771;28;19909;-80
2023/05/16 02:05:44;;;;;;;;;;;20.10;76.20;;;;;;5061945;28;20278;-81
2023/05/16 02:08:10;;;;;;;;;;;20.10;76.20;;;;;;5062511;28;20275;-81
2023/05/16 02:10:40;;;;;;;;;;;20.10;76.20;;;;;;5058466;28;19920;-80
2023/05/16 02:13:05;;;;;;;;;;;20.10;76.20;;;;;;5054679;28;19970;-81
2023/05/16 02:15:31;;;;;;;;;;;20.10;76.30;;;;;;5061279;28;19960;-81
2023/05/16 02:17:57;;;;;;;;;;;20.10;76.20;;;;;;5061258;28;19924;-81
2023/05/16 02:20:25;;;;;;;;;;;20.00;76.20;;;;;;5061191;28;20316;-81
2023/05/16 02:22:51;;;;;;;;;;;20.00;76.30;;;;;;5061618;28;19939;-80
2023/05/16 02:25:16;;;;;;;;;;;20.00;76.30;;;;;;5078251;28;20011;-80
2023/05/16 02:27:42;;;;;;;;;;;20.00;76.30;;;;;;5077780;28;19981;-81
2023/05/16 02:30:10;;;;;;;;;;;20.00;76.30;;;;;;5060055;28;20362;-81
2023/05/16 02:32:36;;;;;;;;;;;19.90;76.20;;;;;;5078112;28;19916;-81
2023/05/16 02:35:03;;;;;;;;;;;19.90;76.30;;;;;;5061487;28;19985;-81
2023/05/16 02:37:30;;;;;;;;;;;19.90;76.30;;;;;;5061131;28;20310;-81
2023/05/16 02:39:55;;;;;;;;;;;19.90;76.40;;;;;;5061719;28;19956;-81
2023/05/16 02:42:21;;;;;;;;;;;19.90;76.30;;;;;;5061576;28;19924;-81
2023/05/16 02:44:46;;;;;;;;;;;19.90;76.30;;;;;;5073739;28;20017;-81
2023/05/16 02:47:20;;;;;;;;;;;19.90;76.30;;;;;;5063334;28;19916;-81
2023/05/16 02:49:45;;;;;;;;;;;19.90;76.30;;;;;;5061160;28;19948;-81
2023/05/16 02:52:12;;;;;;;;;;;19.90;76.40;;;;;;5061479;28;19909;-81
2023/05/16 02:54:37;;;;;;;;;;;19.80;76.30;;;;;;5058119;28;19952;-81
2023/05/16 02:57:09;;;;;;;;;;;19.80;76.30;;;;;;5041059;28;19975;-81
2023/05/16 02:59:35;;;;;;;;;;;19.80;76.40;;;;;;5057900;28;19913;-81
2023/05/16 03:02:00;;;;;;;;;;;19.80;76.40;;;;;;5078012;28;19956;-81
2023/05/16 03:04:26;;;;;;;;;;;19.80;76.60;;;;;;5061019;28;20168;-82
2023/05/16 03:06:52;;;;;;;;;;;19.80;76.40;;;;;;5077692;28;19924;-81
2023/05/16 03:09:18;;;;;;;;;;;19.70;76.40;;;;;;5061093;28;19923;-82
2023/05/16 03:11:44;;;;;;;;;;;19.70;76.30;;;;;;5061377;28;20244;-81
2023/05/16 03:14:09;;;;;;;;;;;19.70;76.30;;;;;;5060942;28;19919;-81
2023/05/16 03:16:37;;;;;;;;;;;19.70;76.30;;;;;;5061138;28;19913;-81
2023/05/16 03:19:06;;;;;;;;;;;19.70;76.40;;;;;;5078634;28;20003;-81
2023/05/16 03:21:31;;;;;;;;;;;19.70;76.30;;;;;;5060194;28;20195;-81
2023/05/16 03:23:57;;;;;;;;;;;19.70;76.40;;;;;;5060103;28;19913;-81
2023/05/16 03:26:24;;;;;;;;;;;19.70;76.40;;;;;;5060387;28;19928;-81
2023/05/16 03:28:50;;;;;;;;;;;19.70;76.40;;;;;;5061308;28;19994;-81
2023/05/16 03:31:16;;;;;;;;;;;19.70;76.40;;;;;;5060462;28;19958;-81
2023/05/16 03:33:41;;;;;;;;;;;19.70;76.50;;;;;;5060431;28;19908;-81
2023/05/16 03:36:15;;;;;;;;;;;19.70;76.40;;;;;;5060336;28;20399;-81
2023/05/16 03:38:40;;;;;;;;;;;19.60;76.40;;;;;;5057019;28;19928;-80
2023/05/16 03:41:06;;;;;;;;;;;19.60;76.40;;;;;;5062092;28;19909;-81
2023/05/16 03:43:31;;;;;;;;;;;19.60;76.30;;;;;;5056463;28;19917;-81
2023/05/16 03:46:02;;;;;;;;;;;19.60;76.40;;;;;;5061537;28;19967;-81
2023/05/16 03:48:27;;;;;;;;;;;19.60;76.40;;;;;;5060705;28;19909;-81
2023/05/16 03:50:53;;;;;;;;;;;19.60;76.40;;;;;;5061425;28;20070;-81
2023/05/16 03:53:19;;;;;;;;;;;19.60;76.40;;;;;;5061099;28;19955;-81
2023/05/16 03:55:46;;;;;;;;;;;19.60;76.40;;;;;;5057682;28;20195;-81
2023/05/16 03:58:12;;;;;;;;;;;19.60;76.40;;;;;;5048061;28;20334;-82
2023/05/16 04:00:37;;;;;;;;;;;19.60;76.40;;;;;;5059955;28;20058;-82
2023/05/16 04:03:03;;;;;;;;;;;19.50;76.40;;;;;;5076404;28;20294;-81
2023/05/16 04:05:29;;;;;;;;;;;19.50;76.40;;;;;;5074740;28;19909;-81
2023/05/16 04:07:55;;;;;;;;;;;19.50;76.40;;;;;;5075808;28;19909;-81
2023/05/16 04:10:21;;;;;;;;;;;19.50;76.40;;;;;;5075688;28;19967;-81
2023/05/16 04:12:47;;;;;;;;;;;19.60;76.40;;;;;;5059979;28;20399;-81
2023/05/16 04:15:14;;;;;;;;;;;19.50;76.30;;;;;;5075994;28;20016;-81
2023/05/16 04:17:39;;;;;;;;;;;19.50;76.30;;;;;;5076578;28;19932;-81
2023/05/16 04:20:08;;;;;;;;;;;19.50;76.20;;;;;;5077209;28;20258;-81
2023/05/16 04:22:33;;;;;;;;;;;19.50;76.10;;;;;;5075913;28;19924;-81
2023/05/16 04:24:59;;;;;;;;;;;19.50;76.10;;;;;;5070703;28;19909;-82
2023/05/16 04:27:25;;;;;;;;;;;19.50;76.10;;;;;;5072113;28;19909;-81
2023/05/16 04:29:51;;;;;;;;;;;19.50;76.10;;;;;;5055890;28;19990;-81
2023/05/16 04:32:17;;;;;;;;;;;19.50;76.00;;;;;;5055973;28;20303;-81
2023/05/16 04:34:44;;;;;;;;;;;19.50;76.00;;;;;;5054297;28;20121;-81
2023/05/16 04:37:09;;;;;;;;;;;19.50;76.00;;;;;;5070991;28;19913;-81
2023/05/16 04:39:35;;;;;;;;;;;19.50;76.00;;;;;;5073668;28;19966;-81
2023/05/16 04:42:01;;;;;;;;;;;19.50;76.00;;;;;;5056343;28;20108;-81
2023/05/16 04:44:27;;;;;;;;;;;19.50;75.90;;;;;;5056195;28;19909;-81
2023/05/16 04:46:52;;;;;;;;;;;19.50;75.90;;;;;;5057415;28;20271;-81
2023/05/16 04:49:18;;;;;;;;;;;19.50;75.70;;;;;;5059054;28;20281;-81
2023/05/16 04:51:44;;;;;;;;;;;19.50;75.60;;;;;;5057624;28;19908;-81
2023/05/16 04:54:10;;;;;;;;;;;19.50;75.40;;;;;;5054129;28;19939;-81
2023/05/16 04:56:35;;;;;;;;;;;19.50;75.20;;;;;;5055324;28;20266;-81
2023/05/16 04:59:03;;;;;;;;;;;19.60;75.10;;;;;;5074056;28;19920;-81
2023/05/16 05:01:28;;;;;;;;;;;19.60;74.90;;;;;;5075881;28;19974;-82
2023/05/16 05:03:54;;;;;;;;;;;19.60;74.60;;;;;;5053920;28;19916;-81
2023/05/16 05:06:20;;;;;;;;;;;19.70;74.40;;;;;;5055261;28;20266;-81
2023/05/16 05:08:46;;;;;;;;;;;19.70;74.10;;;;;;5055757;28;19912;-81
2023/05/16 05:11:11;;;;;;;;;;;19.80;73.90;;;;;;5055966;28;19909;-81
2023/05/16 05:13:37;;;;;;;;;;;19.80;73.60;;;;;;5054844;28;20003;-81
2023/05/16 05:16:03;;;;;;;;;;;19.80;73.40;;;;;;5055741;28;19916;-81
2023/05/16 05:18:29;;;;;;;;;;;19.90;73.10;;;;;;5054129;28;20484;-81
2023/05/16 05:20:55;;;;;;;;;;;19.90;72.90;;;;;;5056074;28;20082;-81
2023/05/16 05:23:21;;;;;;;;;;;20.00;72.60;;;;;;5052568;28;20133;-81
2023/05/16 05:25:46;;;;;;;;;;;20.00;72.10;;;;;;5053264;28;19908;-81
2023/05/16 05:28:12;;;;;;;;;;;20.10;71.60;;;;;;5052672;28;20243;-81
2023/05/16 05:30:37;;;;;;;;;;;20.20;71.20;;;;;;5052170;28;19940;-81
2023/05/16 05:33:03;;;;;;;;;;;20.30;70.90;;;;;;5069465;28;19987;-81
2023/05/16 05:35:29;;;;;;;;;;;20.40;70.60;;;;;;5051921;28;19919;-81
2023/05/16 05:37:54;;;;;;;;;;;20.40;71.10;;;;;;5048339;28;19917;-81
2023/05/16 05:40:20;;;;;;;;;;;20.50;70.50;;;;;;5049711;28;19908;-81
2023/05/16 05:42:46;;;;;;;;;;;20.60;70.70;;;;;;5049214;28;19908;-81
2023/05/16 05:45:11;;;;;;;;;;;20.60;70.60;;;;;;5048381;28;19935;-81
2023/05/16 05:47:37;;;;;;;;;;;20.60;70.50;;;;;;5046305;28;20307;-81
2023/05/16 05:50:03;;;;;;;;;;;20.60;70.00;;;;;;5046975;28;19908;-81
2023/05/16 05:52:29;;;;;;;;;;;20.70;69.50;;;;;;5044729;28;20387;-82
2023/05/16 05:54:55;;;;;;;;;;;20.70;69.50;;;;;;5044314;28;19940;-82
2023/05/16 05:57:20;;;;;;;;;;;20.70;69.20;;;;;;5046580;28;20007;-82
2023/05/16 05:59:46;;;;;;;;;;;20.80;69.00;;;;;;5045101;28;19909;-81
2023/05/16 06:02:12;;;;;;;;;;;20.80;68.60;;;;;;5044149;28;20090;-81
2023/05/16 06:04:38;;;;;;;;;;;20.80;68.60;;;;;;5045074;28;19909;-81
2023/05/16 06:07:03;;;;;;;;;;;20.80;68.20;;;;;;5045881;28;19920;-81
2023/05/16 06:09:29;;;;;;;;;;;20.90;68.30;;;;;;5047474;28;20095;-81
2023/05/16 06:11:55;;;;;;;;;;;20.90;67.70;;;;;;5050070;28;19977;-81
2023/05/16 06:14:21;;;;;;;;;;;21.00;67.60;;;;;;5048119;28;19909;-81
2023/05/16 06:16:46;;;;;;;;;;;21.00;66.80;;;;;;5048947;28;19939;-82
2023/05/16 06:19:14;;;;;;;;;;;21.10;66.40;;;;;;5046716;28;20061;-81
2023/05/16 06:21:41;;;;;;;;;;;21.10;66.30;;;;;;5048491;28;19920;-82
2023/05/16 06:24:06;;;;;;;;;;;21.20;66.20;;;;;;5047815;28;19920;-82
2023/05/16 06:26:32;;;;;;;;;;;21.10;65.50;;;;;;5047444;28;20340;-81
2023/05/16 06:28:58;;;;;;;;;;;21.20;65.30;;;;;;5044700;28;20023;-82
2023/05/16 06:31:23;;;;;;;;;;;21.20;64.80;;;;;;5045972;28;20080;-82
2023/05/16 06:33:49;;;;;;;;;;;21.20;65.00;;;;;;5046730;28;19909;-82
2023/05/16 06:36:15;;;;;;;;;;;21.20;65.20;;;;;;5044386;28;20326;-82
2023/05/16 06:38:40;;;;;;;;;;;21.10;65.00;;;;;;5047735;28;19924;-82
2023/05/16 06:41:06;;;;;;;;;;;21.10;65.30;;;;;;5046481;28;19924;-82
2023/05/16 06:43:32;;;;;;;;;;;21.10;65.50;;;;;;5046580;28;19909;-82
2023/05/16 06:45:57;;;;;;;;;;;21.20;65.30;;;;;;5045011;28;19909;-82
2023/05/16 06:48:23;;;;;;;;;;;21.40;64.90;;;;;;5047559;28;19912;-82
2023/05/16 06:50:52;;;;;;;;;;;21.60;64.30;;;;;;5047476;28;20295;-82
2023/05/16 06:53:18;;;;;;;;;;;21.80;63.60;;;;;;5048079;28;19920;-82
2023/05/16 06:55:44;;;;;;;;;;;22.20;62.20;;;;;;5048999;28;19912;-82
2023/05/16 06:58:09;;;;;;;;;;;22.30;60.70;;;;;;5046797;28;20070;-82
2023/05/16 07:00:35;;;;;;;;;;;22.60;59.90;;;;;;5046282;28;19919;-82
2023/05/16 07:03:02;;;;;;;;;;;22.50;59.40;;;;;;5046509;28;19909;-82
2023/05/16 07:05:28;;;;;;;;;;;22.70;59.40;;;;;;5046106;28;19987;-82
2023/05/16 07:07:54;;;;;;;;;;;22.80;58.90;;;;;;5050380;28;19963;-82
2023/05/16 07:10:21;;;;;;;;;;;22.90;58.50;;;;;;5054574;28;19920;-83
2023/05/16 07:12:47;;;;;;;;;;;23.00;58.00;;;;;;5073684;28;19920;-83
2023/05/16 07:15:13;;;;;;;;;;;23.00;57.90;;;;;;5070104;28;19913;-83
2023/05/16 07:17:39;;;;;;;;;;;23.30;58.00;;;;;;5049196;28;20176;-84
2023/05/16 07:20:06;;;;;;;;;;;23.60;57.00;;;;;;5049369;28;19913;-83
2023/05/16 07:22:31;;;;;;;;;;;23.80;56.80;;;;;;5080760;28;20122;-82
2023/05/16 07:24:59;;;;;;;;;;;24.20;56.10;;;;;;5065802;28;19908;-83
2023/05/16 07:27:28;;;;;;;;;;;23.90;55.60;;;;;;5075329;28;19940;-83
2023/05/16 07:29:54;;;;;;;;;;;23.90;55.60;;;;;;5071661;28;19912;-83
2023/05/16 07:32:20;;;;;;;;;;;23.60;55.70;;;;;;5065035;28;19923;-83
2023/05/16 07:34:46;;;;;;;;;;;23.30;56.10;;;;;;5048022;28;19970;-83
2023/05/16 07:37:12;;;;;;;;;;;23.10;56.40;;;;;;5064182;28;19963;-82
2023/05/16 07:39:38;;;;;;;;;;;22.90;56.70;;;;;;5074027;28;20170;-84
2023/05/16 07:42:05;;;;;;;;;;;23.30;56.90;;;;;;5089076;28;20063;-83
2023/05/16 07:44:31;;;;;;;;;;;23.20;56.50;;;;;;5072329;28;20159;-83
2023/05/16 07:46:57;;;;;;;;;;;23.80;55.90;;;;;;5073010;28;20293;-83
2023/05/16 07:49:22;;;;;;;;;;;24.20;56.00;;;;;;5058509;28;19916;-83
2023/05/16 07:51:48;;;;;;;;;;;24.30;55.10;;;;;;5053911;28;19995;-83
2023/05/16 07:54:14;;;;;;;;;;;25.10;54.40;;;;;;5055728;28;19916;-83
2023/05/16 07:56:39;;;;;;;;;;;25.80;53.50;;;;;;5054233;28;19912;-83
2023/05/16 07:59:05;;;;;;;;;;;26.40;52.60;;;;;;5054727;28;19921;-84
2023/05/16 08:01:30;;;;;;;;;;;26.90;51.90;;;;;;5052943;28;19908;-83
2023/05/16 08:03:56;;;;;;;;;;;27.30;51.30;;;;;;5053354;28;20095;-83
2023/05/16 08:06:22;;;;;;;;;;;27.70;50.70;;;;;;5053771;28;19909;-80
2023/05/16 08:08:47;;;;;;;;;;;27.90;50.20;;;;;;5055201;28;19915;-81
2023/05/16 08:11:13;;;;;;;;;;;28.30;49.80;;;;;;5073398;28;20563;-81
2023/05/16 08:13:39;;;;;;;;;;;28.60;49.30;;;;;;5072567;28;19911;-81
2023/05/16 08:16:04;;;;;;;;;;;28.50;49.00;;;;;;5052971;28;20428;-81
2023/05/16 08:18:30;;;;;;;;;;;28.00;48.90;;;;;;5068436;28;19913;-81
2023/05/16 08:20:55;;;;;;;;;;;27.20;49.10;;;;;;5052280;28;19912;-82
2023/05/16 08:23:21;;;;;;;;;;;26.40;49.60;;;;;;5036506;28;19917;-81
2023/05/16 08:25:47;;;;;;;;;;;25.80;50.10;;;;;;5049023;28;19920;-81
2023/05/16 08:28:12;;;;;;;;;;;25.30;50.60;;;;;;5048360;28;19915;-81
2023/05/16 08:30:38;;;;;;;;;;;25.50;50.80;;;;;;5050664;28;19986;-81
2023/05/16 08:33:05;;;;;;;;;;;25.70;50.70;;;;;;5067659;28;19916;-81
2023/05/16 08:35:30;;;;;;;;;;;25.30;51.20;;;;;;5049927;28;20209;-81
2023/05/16 08:37:56;;;;;;;;;;;25.40;51.30;;;;;;5045898;28;19997;-82
2023/05/16 08:40:25;;;;;;;;;;;25.60;50.80;;;;;;5044541;28;20005;-83
2023/05/16 08:42:50;;;;;;;;;;;26.80;50.50;;;;;;5049113;28;19981;-83
2023/05/16 08:45:16;;;;;;;;;;;27.60;49.40;;;;;;5050518;28;20156;-83
2023/05/16 08:47:43;;;;;;;;;;;27.20;49.20;;;;;;5047235;28;20151;-83
2023/05/16 08:50:09;;;;;;;;;;;26.40;49.30;;;;;;5049603;28;20460;-83
2023/05/16 08:52:36;;;;;;;;;;;26.30;49.60;;;;;;5065090;28;20267;-83
2023/05/16 08:55:08;;;;;;;;;;;25.80;49.70;;;;;;5063184;28;19908;-83
2023/05/16 08:57:34;;;;;;;;;;;25.90;49.80;;;;;;5064370;28;20144;-83
2023/05/16 08:59:59;;;;;;;;;;;25.40;50.00;;;;;;5063117;28;19940;-83
2023/05/16 09:02:26;;;;;;;;;;;24.90;50.40;;;;;;5063857;28;19962;-83
2023/05/16 09:04:53;;;;;;;;;;;25.90;50.80;;;;;;5046952;28;19909;-83
2023/05/16 09:07:18;;;;;;;;;;;26.60;50.10;;;;;;5062955;28;19995;-82
2023/05/16 09:09:44;;;;;;;;;;;27.00;49.10;;;;;;5065686;28;20394;-83
2023/05/16 09:12:10;;;;;;;;;;;26.20;49.30;;;;;;5065155;28;19908;-83
2023/05/16 09:14:37;;;;;;;;;;;25.80;49.80;;;;;;5063032;28;19909;-82
2023/05/16 09:17:05;;;;;;;;;;;25.30;50.00;;;;;;5061427;28;19948;-82
2023/05/16 09:19:38;;;;;;;;;;;24.90;50.40;;;;;;5046972;28;20183;-82
2023/05/16 09:22:03;;;;;;;;;;;24.60;50.90;;;;;;5055790;28;19908;-84
2023/05/16 09:24:29;;;;;;;;;;;24.30;51.30;;;;;;5062155;28;19962;-83
2023/05/16 09:26:55;;;;;;;;;;;24.00;51.70;;;;;;5046224;28;20150;-83
2023/05/16 09:29:21;;;;;;;;;;;23.80;52.10;;;;;;5064364;28;20028;-84
2023/05/16 09:31:48;;;;;;;;;;;23.60;52.40;;;;;;5061856;28;19913;-84
2023/05/16 09:34:13;;;;;;;;;;;23.50;52.60;;;;;;5047701;28;20071;-84
2023/05/16 09:36:39;;;;;;;;;;;23.60;53.00;;;;;;5046371;28;19913;-84
2023/05/16 09:39:05;;;;;;;;;;;23.70;52.90;;;;;;5060871;28;20233;-84
2023/05/16 09:41:35;;;;;;;;;;;24.20;52.10;;;;;;5065140;28;20005;-84
2023/05/16 09:44:05;;;;;;;;;;;24.00;52.20;;;;;;5051797;28;19915;-84
2023/05/16 09:46:35;;;;;;;;;;;24.40;52.40;;;;;;5050039;28;20076;-84
2023/05/16 09:49:01;;;;;;;;;;;24.60;52.00;;;;;;5048023;28;19919;-84
2023/05/16 09:51:27;;;;;;;;;;;24.70;51.60;;;;;;5049691;28;19909;-84
2023/05/16 09:53:53;;;;;;;;;;;24.80;51.50;;;;;;5065257;28;19974;-84
2023/05/16 09:56:20;;;;;;;;;;;24.70;51.50;;;;;;5049061;28;20321;-84
2023/05/16 09:58:46;;;;;;;;;;;24.60;51.60;;;;;;5047363;28;19997;-84
2023/05/16 10:01:12;;;;;;;;;;;24.50;51.80;;;;;;5049330;28;19919;-84
2023/05/16 10:03:39;;;;;;;;;;;24.40;51.80;;;;;;5048983;28;19908;-84
2023/05/16 10:06:05;;;;;;;;;;;24.30;51.90;;;;;;5049007;28;19924;-84
2023/05/16 10:08:35;;;;;;;;;;;24.10;52.10;;;;;;5047041;28;19931;-84
2023/05/16 10:11:01;;;;;;;;;;;24.00;52.20;;;;;;5065599;28;19909;-84
2023/05/16 10:13:29;;;;;;;;;;;24.00;52.30;;;;;;5050150;28;20178;-84
2023/05/16 10:15:56;;;;;;;;;;;23.90;52.40;;;;;;5048426;28;19999;-84
2023/05/16 10:18:22;;;;;;;;;;;23.80;52.50;;;;;;5049270;28;20191;-84
2023/05/16 10:20:57;;;;;;;;;;;23.70;52.60;;;;;;5048437;28;20271;-85
2023/05/16 10:23:28;;;;;;;;;;;23.70;52.70;;;;;;5063896;28;19908;-85
2023/05/16 10:25:54;;;;;;;;;;;23.70;52.80;;;;;;5048434;28;19909;-85
2023/05/16 10:28:25;;;;;;;;;;;23.70;52.80;;;;;;5048503;28;20348;-85
2023/05/16 10:30:52;;;;;;;;;;;23.60;52.80;;;;;;5047736;28;19908;-85
2023/05/16 10:33:21;;;;;;;;;;;23.60;52.70;;;;;;5063752;28;19919;-84
2023/05/16 10:35:47;;;;;;;;;;;23.70;52.80;;;;;;5067131;28;20003;-84
2023/05/16 10:38:17;;;;;;;;;;;23.70;52.80;;;;;;5063679;28;20208;-85
2023/05/16 10:40:43;;;;;;;;;;;23.60;52.80;;;;;;5043852;28;19908;-84
2023/05/16 10:43:08;;;;;;;;;;;23.60;52.90;;;;;;5044474;28;19919;-84
2023/05/16 10:45:52;;;;;;;;;;;23.50;52.90;;;;;;5050913;28;19908;-86
2023/05/16 10:48:27;;;;;;;;;;;23.50;52.90;;;;;;5044609;28;19919;-84
2023/05/16 10:50:52;;;;;;;;;;;23.50;52.80;;;;;;5061635;28;20140;-85
2023/05/16 10:53:22;;;;;;;;;;;23.50;52.90;;;;;;5053584;28;19919;-85
2023/05/16 10:55:57;;;;;;;;;;;23.40;52.80;;;;;;5062131;28;19912;-85
2023/05/16 10:58:24;;;;;;;;;;;23.30;52.90;;;;;;5046937;28;19913;-84
2023/05/16 11:01:10;;;;;;;;;;;23.20;53.10;;;;;;5047342;28;20107;-84
2023/05/16 11:03:35;;;;;;;;;;;23.10;53.30;;;;;;5047413;28;19920;-84
2023/05/16 11:06:01;;;;;;;;;;;23.00;53.50;;;;;;5047784;28;20159;-85
2023/05/16 11:08:26;;;;;;;;;;;23.00;53.60;;;;;;5049682;28;19913;-85
2023/05/16 11:11:12;;;;;;;;;;;22.90;53.70;;;;;;5049297;28;19952;-84
2023/05/16 11:13:52;;;;;;;;;;;22.90;54.30;;;;;;5047322;28;19909;-85
2023/05/16 11:16:28;;;;;;;;;;;22.90;54.00;;;;;;5063021;28;19920;-85
2023/05/16 11:18:54;;;;;;;;;;;22.80;54.00;;;;;;5062020;28;19951;-85
2023/05/16 11:21:19;;;;;;;;;;;22.80;54.00;;;;;;5045828;28;20035;-85
2023/05/16 11:24:05;;;;;;;;;;;22.80;54.10;;;;;;5045727;28;20015;-85
2023/05/16 11:26:30;;;;;;;;;;;22.90;54.10;;;;;;5044823;28;19939;-85
2023/05/16 11:28:58;;;;;;;;;;;22.90;54.10;;;;;;5062078;28;19913;-85
2023/05/16 11:31:23;;;;;;;;;;;22.90;54.20;;;;;;5045773;28;19940;-84
2023/05/16 11:33:52;;;;;;;;;;;22.90;54.10;;;;;;5044516;28;20286;-84
2023/05/16 11:36:18;;;;;;;;;;;22.90;54.10;;;;;;5043568;28;19997;-85
2023/05/16 11:38:43;;;;;;;;;;;22.90;54.20;;;;;;5038678;28;20082;-84
2023/05/16 11:41:10;;;;;;;;;;;22.80;54.30;;;;;;5055629;28;19909;-84
2023/05/16 11:43:40;;;;;;;;;;;22.80;54.40;;;;;;5042550;28;20092;-85
2023/05/16 11:46:06;;;;;;;;;;;22.70;54.30;;;;;;5060119;28;19912;-84
2023/05/16 11:48:32;;;;;;;;;;;22.70;54.50;;;;;;5043146;28;19919;-83
2023/05/16 11:50:57;;;;;;;;;;;22.70;54.50;;;;;;5041810;28;20080;-83
2023/05/16 11:53:23;;;;;;;;;;;22.70;54.40;;;;;;5058774;28;20064;-82
2023/05/16 11:55:51;;;;;;;;;;;22.60;54.50;;;;;;5039679;28;19913;-82
2023/05/16 11:58:17;;;;;;;;;;;22.60;54.70;;;;;;5056709;28;19936;-82
2023/05/16 12:00:46;;;;;;;;;;;22.50;54.90;;;;;;5055987;28;20275;-82
2023/05/16 12:03:12;;;;;;;;;;;22.40;55.00;;;;;;5059454;28;19908;-81
2023/05/16 12:05:38;;;;;;;;;;;22.30;55.20;;;;;;5046755;28;19909;-81
2023/05/16 12:08:05;;;;;;;;;;;22.30;55.30;;;;;;5046383;28;20338;-81
2023/05/16 12:10:33;;;;;;;;;;;22.30;55.40;;;;;;5062415;28;20154;-81
2023/05/16 12:12:58;;;;;;;;;;;22.30;55.50;;;;;;5062771;28;19909;-81
2023/05/16 12:15:24;;;;;;;;;;;22.30;55.50;;;;;;5064887;28;19919;-81
2023/05/16 12:17:50;;;;;;;;;;;22.30;55.50;;;;;;5064065;28;20068;-81
2023/05/16 12:20:16;;;;;;;;;;;22.30;55.50;;;;;;5047132;28;19920;-81
2023/05/16 12:22:43;;;;;;;;;;;22.30;55.60;;;;;;5063208;28;19909;-81
2023/05/16 12:25:28;;;;;;;;;;;22.30;55.60;;;;;;5062958;28;19916;-82
2023/05/16 12:27:59;;;;;;;;;;;22.30;55.70;;;;;;5059740;28;19909;-82
2023/05/16 12:30:26;;;;;;;;;;;22.30;55.70;;;;;;5046303;28;19916;-82
2023/05/16 12:32:52;;;;;;;;;;;22.30;55.80;;;;;;5064309;28;19920;-82
2023/05/16 12:35:18;;;;;;;;;;;22.30;55.80;;;;;;5059292;28;19913;-82
2023/05/16 12:37:43;;;;;;;;;;;22.30;55.90;;;;;;5033831;28;19917;-83
2023/05/16 12:40:11;;;;;;;;;;;22.30;55.80;;;;;;5031417;28;19908;-83
2023/05/16 12:42:36;;;;;;;;;;;22.30;55.80;;;;;;5029585;28;19909;-83
2023/05/16 12:45:04;;;;;;;;;;;22.30;55.90;;;;;;5043455;28;20089;-82
2023/05/16 12:47:36;;;;;;;;;;;22.20;56.00;;;;;;5030387;28;19999;-83
2023/05/16 12:50:07;;;;;;;;;;;22.20;56.10;;;;;;5029544;28;20299;-83
2023/05/16 12:52:33;;;;;;;;;;;22.20;56.20;;;;;;5027215;28;20191;-83
2023/05/16 12:54:58;;;;;;;;;;;22.20;56.20;;;;;;5027981;28;20294;-82
2023/05/16 12:57:24;;;;;;;;;;;22.20;56.10;;;;;;5028190;28;19921;-83
2023/05/16 12:59:50;;;;;;;;;;;22.20;56.10;;;;;;5027005;28;20093;-83
2023/05/16 13:02:15;;;;;;;;;;;22.30;56.10;;;;;;5040570;28;19927;-82
2023/05/16 13:04:41;;;;;;;;;;;22.30;56.10;;;;;;5065455;28;20015;-82
2023/05/16 13:07:07;;;;;;;;;;;22.30;56.10;;;;;;5065165;28;19912;-83
2023/05/16 13:09:32;;;;;;;;;;;22.30;56.10;;;;;;5048296;28;19955;-82
2023/05/16 13:11:58;;;;;;;;;;;22.40;56.00;;;;;;5047694;28;20306;-82
2023/05/16 13:14:24;;;;;;;;;;;22.40;56.00;;;;;;5062520;28;19959;-82
2023/05/16 13:16:50;;;;;;;;;;;22.30;55.90;;;;;;5048142;28;19962;-82
2023/05/16 13:19:16;;;;;;;;;;;22.30;56.10;;;;;;5047492;28;20297;-82
2023/05/16 13:21:41;;;;;;;;;;;22.20;56.20;;;;;;5067139;28;19909;-82
2023/05/16 13:24:07;;;;;;;;;;;22.10;56.30;;;;;;5048400;28;19920;-81
2023/05/16 13:26:33;;;;;;;;;;;22.10;56.40;;;;;;5049048;28;20025;-83
2023/05/16 13:29:01;;;;;;;;;;;22.10;56.20;;;;;;5064195;28;19908;-82
2023/05/16 13:31:26;;;;;;;;;;;22.00;56.40;;;;;;5047910;28;20255;-83
2023/05/16 13:33:52;;;;;;;;;;;22.00;56.40;;;;;;5048147;28;19908;-84
2023/05/16 13:36:18;;;;;;;;;;;22.00;56.50;;;;;;5046229;28;19916;-83
2023/05/16 13:38:43;;;;;;;;;;;22.00;56.50;;;;;;5042997;28;19982;-84
2023/05/16 13:41:09;;;;;;;;;;;22.00;56.60;;;;;;5042220;28;19944;-83
2023/05/16 13:43:34;;;;;;;;;;;22.00;56.70;;;;;;5042513;28;19983;-83
2023/05/16 13:46:00;;;;;;;;;;;22.00;56.60;;;;;;5043436;28;19909;-83
2023/05/16 13:48:26;;;;;;;;;;;22.00;57.10;;;;;;5043470;28;19937;-84
2023/05/16 13:50:52;;;;;;;;;;;22.00;56.50;;;;;;5044478;28;19909;-84
2023/05/16 13:53:17;;;;;;;;;;;22.00;56.40;;;;;;5042546;28;19935;-84
2023/05/16 13:55:43;;;;;;;;;;;22.00;56.50;;;;;;5042359;28;20314;-84
2023/05/16 13:58:09;;;;;;;;;;;22.00;56.70;;;;;;5042167;28;20075;-83
2023/05/16 14:00:34;;;;;;;;;;;22.00;56.80;;;;;;5042011;28;20058;-84
2023/05/16 14:03:00;;;;;;;;;;;21.90;56.80;;;;;;5044011;28;20256;-84
2023/05/16 14:05:26;;;;;;;;;;;21.90;56.90;;;;;;5045553;28;19909;-84
2023/05/16 14:07:52;;;;;;;;;;;21.90;56.90;;;;;;5046255;28;19919;-83
2023/05/16 14:10:17;;;;;;;;;;;22.00;56.90;;;;;;5041810;28;19916;-83
2023/05/16 14:12:43;;;;;;;;;;;21.90;56.80;;;;;;5040093;28;20081;-83
2023/05/16 14:15:09;;;;;;;;;;;21.90;57.00;;;;;;5042013;28;19909;-83